createdAt,value
2022-11-11T00:02:27.464Z,3.21
2022-11-11T00:06:30.205Z,3.21
2022-11-11T00:10:33.118Z,3.21
2022-11-11T00:14:35.817Z,3.17
2022-11-11T00:18:58.492Z,3.23
2022-11-11T00:23:18.828Z,3.16
2022-11-11T00:27:21.524Z,3.19
2022-11-11T00:31:24.328Z,3.06
2022-11-11T00:35:45.840Z,3.04
2022-11-11T00:39:48.568Z,3.06
2022-11-11T00:43:51.252Z,3.06
2022-11-11T00:48:11.504Z,3.05
2022-11-11T00:52:15.610Z,3.03
2022-11-11T00:56:18.657Z,3.07
2022-11-11T01:00:21.761Z,3.09
2022-11-11T01:04:24.509Z,3.08
2022-11-11T01:08:28.864Z,3.12
2022-11-11T01:12:31.836Z,3.09
2022-11-11T01:16:34.622Z,3.06
2022-11-11T01:20:38.553Z,2.94
2022-11-11T01:24:43.020Z,2.93
2022-11-11T01:28:46.836Z,2.92
2022-11-11T01:32:49.616Z,2.77
2022-11-11T01:36:52.427Z,2.67
2022-11-11T01:40:56.436Z,2.74
2022-11-11T01:44:59.158Z,2.87
2022-11-11T01:49:20.695Z,2.94
2022-11-11T01:53:23.894Z,2.95
2022-11-11T01:57:33.850Z,2.95
2022-11-11T02:01:37.681Z,2.94
2022-11-11T02:05:44.087Z,3.00
2022-11-11T02:09:48.685Z,3.02
2022-11-11T02:14:09.389Z,2.99
2022-11-11T02:18:12.412Z,2.96
2022-11-11T02:22:21.312Z,2.92
2022-11-11T02:26:26.367Z,3.03
2022-11-11T02:30:29.523Z,3.01
2022-11-11T02:34:33.211Z,3.09
2022-11-11T02:38:36.261Z,3.11
2022-11-11T02:42:40.342Z,3.23
2022-11-11T02:46:43.043Z,3.29
2022-11-11T02:50:45.723Z,3.18
2022-11-11T02:54:49.447Z,3.24
2022-11-11T02:58:53.703Z,3.27
2022-11-11T03:02:56.682Z,3.27
2022-11-11T03:06:59.822Z,3.33
2022-11-11T03:11:02.784Z,3.33
2022-11-11T03:15:07.999Z,3.41
2022-11-11T03:19:10.878Z,3.40
2022-11-11T03:23:15.178Z,3.41
2022-11-11T03:27:18.229Z,3.42
2022-11-11T03:31:22.289Z,3.45
2022-11-11T03:35:24.948Z,3.45
2022-11-11T03:39:26.605Z,3.42
2022-11-11T03:43:31.096Z,3.40
2022-11-11T03:47:35.147Z,3.37
2022-11-11T03:51:37.834Z,3.42
2022-11-11T03:55:40.520Z,3.43
2022-11-11T03:59:43.160Z,3.42
2022-11-11T04:04:04.515Z,3.42
2022-11-11T04:08:24.485Z,3.41
2022-11-11T04:12:28.193Z,3.24
2022-11-11T04:16:29.854Z,3.29
2022-11-11T04:20:51.529Z,3.26
2022-11-11T04:25:11.595Z,3.38
2022-11-11T04:29:29.457Z,3.47
2022-11-11T04:33:32.137Z,3.49
2022-11-11T04:37:38.372Z,3.47
2022-11-11T04:42:06.600Z,3.52
2022-11-11T04:46:02.815Z,3.52
2022-11-11T04:50:07.632Z,3.51
2022-11-11T04:54:11.811Z,3.41
2022-11-11T04:58:15.380Z,3.29
2022-11-11T05:02:35.600Z,3.17
2022-11-11T05:06:59.459Z,3.15
2022-11-11T05:11:03.938Z,3.19
2022-11-11T05:15:24.782Z,3.26
2022-11-11T05:19:45.133Z,3.31
2022-11-11T05:24:05.265Z,3.24
2022-11-11T05:28:09.355Z,3.27
2022-11-11T05:32:12.119Z,3.28
2022-11-11T05:36:14.740Z,3.23
2022-11-11T05:40:17.562Z,3.21
2022-11-11T05:44:21.584Z,3.26
2022-11-11T05:48:24.224Z,3.29
2022-11-11T05:52:26.831Z,3.28
2022-11-11T05:56:29.500Z,3.22
2022-11-11T06:00:33.795Z,3.25
2022-11-11T06:04:36.506Z,3.27
2022-11-11T06:08:39.305Z,3.15
2022-11-11T06:13:02.177Z,3.12
2022-11-11T06:17:06.326Z,3.19
2022-11-11T06:21:09.049Z,3.19
2022-11-11T06:25:34.883Z,3.19
2022-11-11T06:29:37.547Z,3.17
2022-11-11T06:33:41.789Z,3.22
2022-11-11T06:37:44.496Z,3.23
2022-11-11T06:41:47.246Z,3.27
2022-11-11T06:45:52.170Z,3.31
2022-11-11T06:49:56.302Z,3.34
2022-11-11T06:53:58.992Z,3.28
2022-11-11T06:58:08.243Z,3.29
2022-11-11T07:02:14.108Z,3.39
2022-11-11T07:06:18.092Z,3.48
2022-11-11T07:10:20.878Z,3.44
2022-11-11T07:14:23.575Z,3.60
2022-11-11T07:18:26.643Z,3.70
2022-11-11T07:22:34.251Z,3.72
2022-11-11T07:26:40.482Z,3.71
2022-11-11T07:30:43.176Z,3.80
2022-11-11T07:34:45.872Z,3.84
2022-11-11T07:38:49.905Z,3.80
2022-11-11T07:42:52.583Z,3.85
2022-11-11T07:46:55.467Z,3.81
2022-11-11T07:50:58.146Z,3.87
2022-11-11T07:55:02.160Z,3.92
2022-11-11T07:59:05.058Z,3.90
2022-11-11T08:03:09.172Z,3.86
2022-11-11T08:07:12.017Z,3.87
2022-11-11T08:11:17.137Z,3.68
2022-11-11T08:15:20.037Z,3.66
2022-11-11T08:19:22.721Z,3.66
2022-11-11T08:28:00.478Z,3.79
2022-11-11T08:32:03.143Z,3.77
2022-11-11T08:36:08.313Z,3.73
2022-11-11T08:40:11.183Z,3.78
2022-11-11T08:44:15.336Z,3.81
2022-11-11T08:48:17.989Z,3.93
2022-11-11T08:52:20.635Z,3.92
2022-11-11T08:56:23.225Z,3.99
2022-11-11T09:00:27.327Z,3.99
2022-11-11T09:04:44.176Z,4.06
2022-11-11T09:08:47.247Z,4.02
2022-11-11T09:12:49.839Z,4.22
2022-11-11T09:16:53.883Z,4.33
2022-11-11T09:20:59.708Z,4.33
2022-11-11T09:25:02.338Z,4.44
2022-11-11T09:29:04.989Z,4.38
2022-11-11T09:33:09.677Z,4.41
2022-11-11T09:37:12.499Z,4.44
2022-11-11T09:41:21.113Z,4.54
2022-11-11T09:45:31.439Z,4.79
2022-11-11T09:49:53.015Z,4.99
2022-11-11T09:54:00.664Z,4.91
2022-11-11T09:58:07.789Z,4.94
2022-11-11T10:02:20.512Z,4.89
2022-11-11T10:06:29.032Z,5.00
2022-11-11T10:10:41.406Z,5.15
2022-11-11T10:14:47.044Z,5.26
2022-11-11T10:19:07.664Z,5.24
2022-11-11T10:23:16.067Z,5.14
2022-11-11T10:27:20.998Z,5.28
2022-11-11T10:31:24.651Z,5.35
2022-11-11T10:35:29.527Z,5.57
2022-11-11T10:39:46.153Z,5.89
2022-11-11T10:43:48.818Z,6.20
2022-11-11T10:47:57.635Z,6.32
2022-11-11T10:52:06.073Z,6.38
2022-11-11T10:56:18.764Z,6.35
2022-11-11T11:00:21.615Z,6.42
2022-11-11T11:04:32.637Z,6.54
2022-11-11T11:08:39.714Z,6.71
2022-11-11T11:12:50.289Z,6.80
2022-11-11T11:16:55.801Z,6.93
2022-11-11T11:21:00.505Z,7.20
2022-11-11T11:25:11.538Z,7.23
2022-11-11T11:29:26.734Z,7.29
2022-11-11T11:33:49.454Z,7.44
2022-11-11T11:37:52.529Z,7.53
2022-11-11T11:41:55.216Z,7.37
2022-11-11T11:46:05.255Z,7.45
2022-11-11T11:50:37.802Z,7.36
2022-11-11T11:54:56.799Z,7.21
2022-11-11T11:59:07.560Z,7.00
2022-11-11T12:03:34.592Z,6.91
2022-11-11T12:07:51.168Z,6.76
2022-11-11T12:12:02.053Z,6.74
2022-11-11T12:16:18.799Z,6.81
2022-11-11T12:20:28.040Z,6.79
2022-11-11T12:24:44.318Z,6.83
2022-11-11T12:29:01.338Z,6.85
2022-11-11T12:33:43.505Z,6.91
2022-11-11T12:37:58.557Z,6.88
2022-11-11T12:42:11.338Z,6.92
2022-11-11T12:46:22.058Z,7.12
2022-11-11T12:50:32.375Z,7.17
2022-11-11T12:54:47.675Z,7.25
2022-11-11T12:58:58.270Z,7.24
2022-11-11T13:03:24.166Z,7.28
2022-11-11T13:07:47.545Z,7.27
2022-11-11T13:12:03.755Z,7.05
2022-11-11T13:16:10.259Z,7.06
2022-11-11T13:20:25.725Z,7.04
2022-11-11T13:24:31.388Z,6.93
2022-11-11T13:28:40.753Z,6.87
2022-11-11T13:32:48.532Z,6.89
2022-11-11T13:36:54.531Z,6.91
2022-11-11T13:41:00.324Z,6.82
2022-11-11T13:45:06.995Z,6.71
2022-11-11T13:49:22.439Z,6.73
2022-11-11T13:53:31.508Z,6.71
2022-11-11T13:57:36.099Z,7.05
2022-11-11T14:01:42.866Z,8.44
2022-11-11T14:05:46.007Z,8.25
2022-11-11T14:10:09.655Z,7.54
2022-11-11T14:14:50.446Z,7.20
2022-11-11T14:18:54.670Z,7.07
2022-11-11T14:23:23.582Z,6.80
2022-11-11T14:27:31.757Z,6.82
2022-11-11T14:32:04.672Z,6.88
2022-11-11T14:36:20.576Z,7.05
2022-11-11T14:40:27.514Z,6.69
2022-11-11T14:44:41.561Z,6.45
2022-11-11T14:49:00.668Z,6.32
2022-11-11T14:53:14.126Z,6.54
2022-11-11T14:57:26.782Z,6.33
2022-11-11T15:01:29.594Z,6.28
2022-11-11T15:05:48.701Z,6.26
2022-11-11T15:10:04.949Z,6.31
2022-11-11T15:14:22.637Z,6.23
2022-11-11T15:18:46.969Z,6.15
2022-11-11T15:22:58.758Z,6.04
2022-11-11T15:27:10.596Z,6.04
2022-11-11T15:31:23.697Z,6.11
2022-11-11T15:35:35.851Z,6.13
2022-11-11T15:39:42.122Z,6.06
2022-11-11T15:43:47.044Z,6.05
2022-11-11T15:47:53.413Z,6.03
2022-11-11T15:51:58.324Z,6.03
2022-11-11T15:56:02.423Z,5.96
2022-11-11T16:00:27.337Z,5.99
2022-11-11T16:08:56.427Z,5.84
2022-11-11T16:13:05.598Z,5.89
2022-11-11T16:17:09.916Z,5.96
2022-11-11T16:21:15.900Z,5.90
2022-11-11T16:25:22.441Z,5.92
2022-11-11T16:29:33.422Z,5.93
2022-11-11T16:33:37.517Z,5.92
2022-11-11T16:37:52.182Z,5.79
2022-11-11T16:41:56.208Z,5.79
2022-11-11T16:46:03.461Z,5.83
2022-11-11T16:50:10.405Z,5.83
2022-11-11T16:54:19.533Z,5.75
2022-11-11T16:58:23.640Z,5.67
2022-11-11T17:02:26.628Z,5.57
2022-11-11T17:06:50.153Z,5.53
2022-11-11T17:10:53.031Z,6.05
2022-11-11T17:14:55.673Z,7.20
2022-11-11T17:19:00.993Z,6.34
2022-11-11T17:23:06.513Z,5.87
2022-11-11T17:27:10.311Z,5.73
2022-11-11T17:31:15.100Z,5.66
2022-11-11T17:35:18.461Z,5.60
2022-11-11T17:39:22.494Z,5.34
2022-11-11T17:43:25.520Z,5.25
2022-11-11T17:47:28.718Z,5.20
2022-11-11T17:51:31.396Z,5.17
2022-11-11T17:55:35.456Z,5.02
2022-11-11T17:59:38.127Z,4.96
2022-11-11T18:03:40.815Z,4.99
2022-11-11T18:07:45.135Z,5.04
2022-11-11T18:11:49.545Z,4.83
2022-11-11T18:15:52.249Z,4.86
2022-11-11T18:19:54.962Z,4.86
2022-11-11T18:23:58.206Z,4.83
2022-11-11T18:28:02.253Z,4.87
2022-11-11T18:32:05.435Z,4.89
2022-11-11T18:36:10.365Z,4.89
2022-11-11T18:40:14.173Z,4.88
2022-11-11T18:44:18.313Z,4.85
2022-11-11T18:48:20.938Z,4.91
2022-11-11T18:52:23.924Z,4.95
2022-11-11T18:56:28.263Z,4.97
2022-11-11T19:00:32.393Z,5.00
2022-11-11T19:04:35.188Z,4.97
2022-11-11T19:08:38.758Z,5.41
2022-11-11T19:12:41.416Z,5.46
2022-11-11T19:16:46.606Z,4.95
2022-11-11T19:20:49.561Z,4.71
2022-11-11T19:24:52.244Z,4.66
2022-11-11T19:28:55.330Z,4.62
2022-11-11T19:32:59.582Z,4.61
2022-11-11T19:37:02.738Z,4.62
2022-11-11T19:41:10.135Z,4.56
2022-11-11T19:45:12.880Z,4.58
2022-11-11T19:49:19.880Z,4.62
2022-11-11T19:53:22.969Z,4.63
2022-11-11T19:57:26.270Z,4.59
2022-11-11T20:01:29.168Z,4.65
2022-11-11T20:05:38.166Z,4.63
2022-11-11T20:09:40.823Z,4.49
2022-11-11T20:13:43.452Z,4.34
2022-11-11T20:17:46.179Z,4.32
2022-11-11T20:21:50.151Z,4.25
2022-11-11T20:25:52.808Z,4.18
2022-11-11T20:29:55.485Z,4.18
2022-11-11T20:33:58.404Z,4.12
2022-11-11T20:38:02.476Z,4.13
2022-11-11T20:42:05.371Z,4.15
2022-11-11T20:46:11.227Z,4.16
2022-11-11T20:50:13.886Z,4.11
2022-11-11T20:54:18.220Z,4.01
2022-11-11T20:58:20.891Z,4.00
2022-11-11T21:02:24.356Z,4.03
2022-11-11T21:06:29.793Z,3.95
2022-11-11T21:10:33.875Z,3.90
2022-11-11T21:14:36.630Z,3.82
2022-11-11T21:18:39.543Z,3.80
2022-11-11T21:22:42.274Z,3.82
2022-11-11T21:26:47.480Z,3.93
2022-11-11T21:30:50.256Z,3.98
2022-11-11T21:34:52.969Z,3.95
2022-11-11T21:38:55.929Z,3.95
2022-11-11T21:42:59.922Z,3.80
2022-11-11T21:47:02.542Z,3.87
2022-11-11T21:51:07.169Z,3.99
2022-11-11T21:55:09.968Z,4.07
2022-11-11T21:59:14.007Z,4.08
2022-11-11T22:03:16.702Z,4.16
2022-11-11T22:07:19.446Z,4.19
2022-11-11T22:11:24.061Z,4.13
2022-11-11T22:15:28.184Z,4.19
2022-11-11T22:19:30.932Z,4.25
2022-11-11T22:23:33.843Z,4.24
2022-11-11T22:27:36.605Z,4.12
2022-11-11T22:31:42.105Z,4.09
2022-11-11T22:35:45.441Z,4.10
2022-11-11T22:39:48.252Z,4.11
2022-11-11T22:44:00.165Z,4.09
2022-11-11T22:48:04.550Z,4.02
2022-11-11T22:52:07.243Z,4.05
2022-11-11T22:56:12.666Z,4.10
2022-11-11T23:00:16.152Z,4.12
2022-11-11T23:04:20.265Z,4.08
2022-11-11T23:08:23.148Z,4.13
2022-11-11T23:12:26.122Z,4.10
2022-11-11T23:16:29.867Z,4.10
2022-11-11T23:20:33.926Z,3.92
2022-11-11T23:24:36.603Z,3.95
2022-11-11T23:28:40.483Z,3.91
2022-11-11T23:32:43.149Z,3.97
2022-11-11T23:36:47.193Z,4.00
2022-11-11T23:40:49.867Z,3.99
2022-11-11T23:44:52.674Z,4.00
2022-11-11T23:48:55.407Z,3.84
2022-11-11T23:52:59.434Z,3.83
2022-11-11T23:57:02.140Z,3.75
